sensor_id;sensor_type;location;lat;lon;timestamp;P1;durP1;ratioP1;P2;durP2;ratioP2
71715;SDS011;59568;52.128;5.434;2023-08-30T00:01:11;6.97;;;4.05;;
71715;SDS011;59568;52.128;5.434;2023-08-30T00:03:38;6.20;;;3.60;;
71715;SDS011;59568;52.128;5.434;2023-08-30T00:06:06;7.32;;;4.32;;
71715;SDS011;59568;52.128;5.434;2023-08-30T00:08:33;7.20;;;3.83;;
71715;SDS011;59568;52.128;5.434;2023-08-30T00:11:01;7.75;;;4.38;;
71715;SDS011;59568;52.128;5.434;2023-08-30T00:13:30;7.43;;;4.25;;
71715;SDS011;59568;52.128;5.434;2023-08-30T00:15:59;8.18;;;4.05;;
71715;SDS011;59568;52.128;5.434;2023-08-30T00:18:26;7.63;;;4.47;;
71715;SDS011;59568;52.128;5.434;2023-08-30T00:20:53;6.93;;;3.90;;
71715;SDS011;59568;52.128;5.434;2023-08-30T00:23:19;7.28;;;4.20;;
71715;SDS011;59568;52.128;5.434;2023-08-30T00:25:46;6.03;;;4.32;;
71715;SDS011;59568;52.128;5.434;2023-08-30T00:28:13;7.15;;;4.40;;
71715;SDS011;59568;52.128;5.434;2023-08-30T00:30:40;7.15;;;4.57;;
71715;SDS011;59568;52.128;5.434;2023-08-30T00:33:07;7.33;;;4.47;;
71715;SDS011;59568;52.128;5.434;2023-08-30T00:35:34;6.60;;;4.20;;
71715;SDS011;59568;52.128;5.434;2023-08-30T00:38:01;9.48;;;4.50;;
71715;SDS011;59568;52.128;5.434;2023-08-30T00:40:28;8.07;;;4.22;;
71715;SDS011;59568;52.128;5.434;2023-08-30T00:42:56;6.38;;;4.47;;
71715;SDS011;59568;52.128;5.434;2023-08-30T00:45:23;7.13;;;3.90;;
71715;SDS011;59568;52.128;5.434;2023-08-30T00:47:50;6.93;;;4.20;;
71715;SDS011;59568;52.128;5.434;2023-08-30T00:50:17;6.90;;;4.30;;
71715;SDS011;59568;52.128;5.434;2023-08-30T00:52:44;7.03;;;4.28;;
71715;SDS011;59568;52.128;5.434;2023-08-30T00:55:11;7.60;;;4.07;;
71715;SDS011;59568;52.128;5.434;2023-08-30T00:57:38;10.53;;;4.70;;
71715;SDS011;59568;52.128;5.434;2023-08-30T01:00:06;9.77;;;4.30;;
71715;SDS011;59568;52.128;5.434;2023-08-30T01:02:33;6.13;;;4.18;;
71715;SDS011;59568;52.128;5.434;2023-08-30T01:05:02;6.47;;;4.40;;
71715;SDS011;59568;52.128;5.434;2023-08-30T01:07:29;7.38;;;4.97;;
71715;SDS011;59568;52.128;5.434;2023-08-30T01:09:56;8.00;;;4.87;;
71715;SDS011;59568;52.128;5.434;2023-08-30T01:12:27;6.85;;;4.20;;
71715;SDS011;59568;52.128;5.434;2023-08-30T01:17:47;9.80;;;4.53;;
71715;SDS011;59568;52.128;5.434;2023-08-30T01:20:18;8.70;;;4.43;;
71715;SDS011;59568;52.128;5.434;2023-08-30T01:28:09;8.13;;;4.43;;
71715;SDS011;59568;52.128;5.434;2023-08-30T01:30:37;8.57;;;4.63;;
71715;SDS011;59568;52.128;5.434;2023-08-30T01:33:08;6.93;;;4.55;;
71715;SDS011;59568;52.128;5.434;2023-08-30T01:35:36;7.00;;;4.20;;
71715;SDS011;59568;52.128;5.434;2023-08-30T01:38:04;7.68;;;4.93;;
71715;SDS011;59568;52.128;5.434;2023-08-30T01:40:36;6.97;;;4.18;;
71715;SDS011;59568;52.128;5.434;2023-08-30T01:43:06;5.93;;;3.90;;
71715;SDS011;59568;52.128;5.434;2023-08-30T01:45:35;7.40;;;4.50;;
71715;SDS011;59568;52.128;5.434;2023-08-30T01:48:04;6.20;;;4.17;;
71715;SDS011;59568;52.128;5.434;2023-08-30T01:50:34;6.65;;;4.25;;
71715;SDS011;59568;52.128;5.434;2023-08-30T01:53:02;5.93;;;4.18;;
71715;SDS011;59568;52.128;5.434;2023-08-30T01:55:29;9.18;;;4.72;;
71715;SDS011;59568;52.128;5.434;2023-08-30T01:57:58;7.00;;;4.28;;
71715;SDS011;59568;52.128;5.434;2023-08-30T02:00:25;6.47;;;4.00;;
71715;SDS011;59568;52.128;5.434;2023-08-30T02:02:52;6.82;;;4.32;;
71715;SDS011;59568;52.128;5.434;2023-08-30T02:05:19;7.68;;;4.40;;
71715;SDS011;59568;52.128;5.434;2023-08-30T02:07:50;7.50;;;4.63;;
71715;SDS011;59568;52.128;5.434;2023-08-30T02:10:23;8.50;;;4.88;;
71715;SDS011;59568;52.128;5.434;2023-08-30T02:12:54;6.83;;;4.43;;
71715;SDS011;59568;52.128;5.434;2023-08-30T02:15:24;7.50;;;4.43;;
71715;SDS011;59568;52.128;5.434;2023-08-30T02:17:54;8.00;;;4.65;;
71715;SDS011;59568;52.128;5.434;2023-08-30T02:20:22;8.05;;;4.93;;
71715;SDS011;59568;52.128;5.434;2023-08-30T02:22:49;8.05;;;4.65;;
71715;SDS011;59568;52.128;5.434;2023-08-30T02:25:16;6.43;;;4.47;;
71715;SDS011;59568;52.128;5.434;2023-08-30T02:27:43;7.95;;;4.97;;
71715;SDS011;59568;52.128;5.434;2023-08-30T02:30:10;9.75;;;5.00;;
71715;SDS011;59568;52.128;5.434;2023-08-30T02:32:37;9.23;;;5.10;;
71715;SDS011;59568;52.128;5.434;2023-08-30T02:35:04;7.68;;;4.80;;
71715;SDS011;59568;52.128;5.434;2023-08-30T02:37:31;8.57;;;5.97;;
71715;SDS011;59568;52.128;5.434;2023-08-30T02:39:58;7.60;;;4.22;;
71715;SDS011;59568;52.128;5.434;2023-08-30T02:42:25;8.00;;;4.72;;
71715;SDS011;59568;52.128;5.434;2023-08-30T02:44:52;5.57;;;3.80;;
71715;SDS011;59568;52.128;5.434;2023-08-30T02:47:19;8.43;;;5.13;;
71715;SDS011;59568;52.128;5.434;2023-08-30T02:49:46;8.93;;;4.67;;
71715;SDS011;59568;52.128;5.434;2023-08-30T02:52:13;8.52;;;4.93;;
71715;SDS011;59568;52.128;5.434;2023-08-30T02:54:40;11.23;;;5.70;;
71715;SDS011;59568;52.128;5.434;2023-08-30T02:57:07;10.02;;;5.50;;
71715;SDS011;59568;52.128;5.434;2023-08-30T02:59:34;8.07;;;4.80;;
71715;SDS011;59568;52.128;5.434;2023-08-30T03:02:01;9.20;;;5.37;;
71715;SDS011;59568;52.128;5.434;2023-08-30T03:04:29;9.55;;;5.45;;
71715;SDS011;59568;52.128;5.434;2023-08-30T03:06:56;9.65;;;5.75;;
71715;SDS011;59568;52.128;5.434;2023-08-30T03:09:22;8.23;;;4.82;;
71715;SDS011;59568;52.128;5.434;2023-08-30T03:11:49;9.38;;;5.20;;
71715;SDS011;59568;52.128;5.434;2023-08-30T03:14:16;10.70;;;5.70;;
71715;SDS011;59568;52.128;5.434;2023-08-30T03:16:43;6.85;;;4.18;;
71715;SDS011;59568;52.128;5.434;2023-08-30T03:19:11;8.52;;;5.32;;
71715;SDS011;59568;52.128;5.434;2023-08-30T03:21:38;7.97;;;4.72;;
71715;SDS011;59568;52.128;5.434;2023-08-30T03:24:05;9.65;;;5.40;;
71715;SDS011;59568;52.128;5.434;2023-08-30T03:26:32;10.00;;;4.67;;
71715;SDS011;59568;52.128;5.434;2023-08-30T03:28:59;9.23;;;5.78;;
71715;SDS011;59568;52.128;5.434;2023-08-30T03:31:25;9.25;;;5.10;;
71715;SDS011;59568;52.128;5.434;2023-08-30T03:33:52;10.35;;;5.70;;
71715;SDS011;59568;52.128;5.434;2023-08-30T03:36:19;9.07;;;5.43;;
71715;SDS011;59568;52.128;5.434;2023-08-30T03:38:46;10.50;;;5.93;;
71715;SDS011;59568;52.128;5.434;2023-08-30T03:41:13;10.57;;;6.15;;
71715;SDS011;59568;52.128;5.434;2023-08-30T03:43:40;10.60;;;5.93;;
71715;SDS011;59568;52.128;5.434;2023-08-30T03:46:07;11.80;;;6.00;;
71715;SDS011;59568;52.128;5.434;2023-08-30T03:48:36;9.15;;;5.63;;
71715;SDS011;59568;52.128;5.434;2023-08-30T03:51:02;9.70;;;5.80;;
71715;SDS011;59568;52.128;5.434;2023-08-30T03:53:29;8.70;;;5.53;;
71715;SDS011;59568;52.128;5.434;2023-08-30T03:55:56;11.52;;;6.15;;
71715;SDS011;59568;52.128;5.434;2023-08-30T03:58:23;11.80;;;6.00;;
71715;SDS011;59568;52.128;5.434;2023-08-30T04:00:50;10.27;;;5.22;;
71715;SDS011;59568;52.128;5.434;2023-08-30T04:03:17;11.30;;;6.50;;
71715;SDS011;59568;52.128;5.434;2023-08-30T04:05:44;11.20;;;6.25;;
71715;SDS011;59568;52.128;5.434;2023-08-30T04:08:11;10.68;;;5.85;;
71715;SDS011;59568;52.128;5.434;2023-08-30T04:10:40;8.60;;;5.60;;
71715;SDS011;59568;52.128;5.434;2023-08-30T04:13:07;9.35;;;5.22;;
71715;SDS011;59568;52.128;5.434;2023-08-30T04:15:38;11.60;;;6.00;;
71715;SDS011;59568;52.128;5.434;2023-08-30T04:18:06;10.90;;;6.10;;
71715;SDS011;59568;52.128;5.434;2023-08-30T04:20:34;11.02;;;5.60;;
71715;SDS011;59568;52.128;5.434;2023-08-30T04:23:01;9.70;;;6.03;;
71715;SDS011;59568;52.128;5.434;2023-08-30T04:25:28;9.38;;;5.80;;
71715;SDS011;59568;52.128;5.434;2023-08-30T04:27:56;16.47;;;5.57;;
71715;SDS011;59568;52.128;5.434;2023-08-30T04:30:23;11.60;;;6.22;;
71715;SDS011;59568;52.128;5.434;2023-08-30T04:32:50;10.25;;;5.80;;
71715;SDS011;59568;52.128;5.434;2023-08-30T04:35:17;10.82;;;5.20;;
71715;SDS011;59568;52.128;5.434;2023-08-30T04:37:44;10.95;;;6.07;;
71715;SDS011;59568;52.128;5.434;2023-08-30T04:40:11;10.33;;;5.70;;
71715;SDS011;59568;52.128;5.434;2023-08-30T04:42:38;9.10;;;5.10;;
71715;SDS011;59568;52.128;5.434;2023-08-30T04:45:06;10.43;;;5.35;;
71715;SDS011;59568;52.128;5.434;2023-08-30T04:47:34;10.55;;;5.30;;
71715;SDS011;59568;52.128;5.434;2023-08-30T04:50:01;9.13;;;5.15;;
71715;SDS011;59568;52.128;5.434;2023-08-30T04:52:28;10.10;;;5.10;;
71715;SDS011;59568;52.128;5.434;2023-08-30T04:54:55;8.90;;;4.80;;
71715;SDS011;59568;52.128;5.434;2023-08-30T04:57:22;8.40;;;4.90;;
71715;SDS011;59568;52.128;5.434;2023-08-30T04:59:49;8.13;;;4.72;;
71715;SDS011;59568;52.128;5.434;2023-08-30T05:02:15;9.13;;;5.10;;
71715;SDS011;59568;52.128;5.434;2023-08-30T05:04:42;9.00;;;5.03;;
71715;SDS011;59568;52.128;5.434;2023-08-30T05:07:09;10.60;;;5.13;;
71715;SDS011;59568;52.128;5.434;2023-08-30T05:09:36;9.32;;;5.22;;
71715;SDS011;59568;52.128;5.434;2023-08-30T05:12:03;8.60;;;4.50;;
71715;SDS011;59568;52.128;5.434;2023-08-30T05:14:30;8.70;;;4.93;;
71715;SDS011;59568;52.128;5.434;2023-08-30T05:16:57;8.20;;;4.53;;
71715;SDS011;59568;52.128;5.434;2023-08-30T05:19:23;8.95;;;4.80;;
71715;SDS011;59568;52.128;5.434;2023-08-30T05:21:50;10.32;;;4.97;;
71715;SDS011;59568;52.128;5.434;2023-08-30T05:24:21;10.00;;;5.20;;
71715;SDS011;59568;52.128;5.434;2023-08-30T05:26:48;9.02;;;4.90;;
71715;SDS011;59568;52.128;5.434;2023-08-30T05:29:15;8.73;;;4.53;;
71715;SDS011;59568;52.128;5.434;2023-08-30T05:31:43;10.63;;;5.68;;
71715;SDS011;59568;52.128;5.434;2023-08-30T05:34:10;9.10;;;5.30;;
71715;SDS011;59568;52.128;5.434;2023-08-30T05:36:37;9.57;;;5.30;;
71715;SDS011;59568;52.128;5.434;2023-08-30T05:39:04;10.07;;;6.22;;
71715;SDS011;59568;52.128;5.434;2023-08-30T05:41:32;9.67;;;5.30;;
71715;SDS011;59568;52.128;5.434;2023-08-30T05:43:59;12.98;;;6.03;;
71715;SDS011;59568;52.128;5.434;2023-08-30T05:46:26;10.25;;;5.55;;
71715;SDS011;59568;52.128;5.434;2023-08-30T05:48:53;12.45;;;6.53;;
71715;SDS011;59568;52.128;5.434;2023-08-30T05:51:21;9.48;;;6.13;;
71715;SDS011;59568;52.128;5.434;2023-08-30T05:53:48;11.20;;;5.57;;
71715;SDS011;59568;52.128;5.434;2023-08-30T05:56:15;12.95;;;6.55;;
71715;SDS011;59568;52.128;5.434;2023-08-30T05:58:42;8.93;;;5.55;;
71715;SDS011;59568;52.128;5.434;2023-08-30T06:01:09;11.43;;;6.03;;
71715;SDS011;59568;52.128;5.434;2023-08-30T06:03:36;11.65;;;6.80;;
71715;SDS011;59568;52.128;5.434;2023-08-30T06:06:03;12.27;;;5.73;;
71715;SDS011;59568;52.128;5.434;2023-08-30T06:08:31;10.82;;;6.57;;
71715;SDS011;59568;52.128;5.434;2023-08-30T06:10:58;12.65;;;6.65;;
71715;SDS011;59568;52.128;5.434;2023-08-30T06:13:25;12.63;;;6.07;;
71715;SDS011;59568;52.128;5.434;2023-08-30T06:15:52;13.68;;;6.88;;
71715;SDS011;59568;52.128;5.434;2023-08-30T06:18:20;11.33;;;6.53;;
71715;SDS011;59568;52.128;5.434;2023-08-30T06:20:47;10.57;;;6.47;;
71715;SDS011;59568;52.128;5.434;2023-08-30T06:23:14;11.60;;;6.40;;
71715;SDS011;59568;52.128;5.434;2023-08-30T06:25:42;9.88;;;5.60;;
71715;SDS011;59568;52.128;5.434;2023-08-30T06:28:08;10.38;;;6.35;;
71715;SDS011;59568;52.128;5.434;2023-08-30T06:30:36;11.40;;;6.40;;
71715;SDS011;59568;52.128;5.434;2023-08-30T06:33:04;9.68;;;5.78;;
71715;SDS011;59568;52.128;5.434;2023-08-30T06:35:32;9.50;;;5.93;;
71715;SDS011;59568;52.128;5.434;2023-08-30T06:37:59;13.63;;;6.20;;
71715;SDS011;59568;52.128;5.434;2023-08-30T06:40:25;9.77;;;6.20;;
71715;SDS011;59568;52.128;5.434;2023-08-30T06:42:52;11.67;;;6.90;;
71715;SDS011;59568;52.128;5.434;2023-08-30T06:45:19;9.35;;;6.30;;
71715;SDS011;59568;52.128;5.434;2023-08-30T06:47:48;12.48;;;6.35;;
71715;SDS011;59568;52.128;5.434;2023-08-30T06:50:16;14.07;;;6.82;;
71715;SDS011;59568;52.128;5.434;2023-08-30T06:52:43;11.52;;;6.50;;
71715;SDS011;59568;52.128;5.434;2023-08-30T06:55:10;11.77;;;6.80;;
71715;SDS011;59568;52.128;5.434;2023-08-30T06:57:36;14.27;;;7.88;;
71715;SDS011;59568;52.128;5.434;2023-08-30T07:00:04;12.65;;;6.82;;
71715;SDS011;59568;52.128;5.434;2023-08-30T07:02:37;12.68;;;7.00;;
71715;SDS011;59568;52.128;5.434;2023-08-30T07:05:04;11.75;;;5.82;;
71715;SDS011;59568;52.128;5.434;2023-08-30T07:07:32;11.10;;;6.37;;
71715;SDS011;59568;52.128;5.434;2023-08-30T07:09:58;10.93;;;6.30;;
71715;SDS011;59568;52.128;5.434;2023-08-30T07:12:25;13.05;;;6.72;;
71715;SDS011;59568;52.128;5.434;2023-08-30T07:14:52;11.85;;;6.32;;
71715;SDS011;59568;52.128;5.434;2023-08-30T07:17:20;11.45;;;6.20;;
71715;SDS011;59568;52.128;5.434;2023-08-30T07:19:47;13.40;;;6.57;;
71715;SDS011;59568;52.128;5.434;2023-08-30T07:22:14;12.73;;;6.63;;
71715;SDS011;59568;52.128;5.434;2023-08-30T07:24:43;9.88;;;6.43;;
71715;SDS011;59568;52.128;5.434;2023-08-30T07:27:11;13.23;;;6.80;;
71715;SDS011;59568;52.128;5.434;2023-08-30T07:29:40;12.20;;;6.88;;
71715;SDS011;59568;52.128;5.434;2023-08-30T07:32:07;10.97;;;6.63;;
71715;SDS011;59568;52.128;5.434;2023-08-30T07:34:34;11.57;;;6.55;;
71715;SDS011;59568;52.128;5.434;2023-08-30T07:37:01;9.95;;;6.57;;
71715;SDS011;59568;52.128;5.434;2023-08-30T07:39:28;14.98;;;7.18;;
71715;SDS011;59568;52.128;5.434;2023-08-30T07:41:55;12.30;;;6.85;;
71715;SDS011;59568;52.128;5.434;2023-08-30T07:44:22;11.27;;;6.40;;
71715;SDS011;59568;52.128;5.434;2023-08-30T07:46:49;12.15;;;6.30;;
71715;SDS011;59568;52.128;5.434;2023-08-30T07:49:16;12.57;;;6.90;;
71715;SDS011;59568;52.128;5.434;2023-08-30T07:51:42;12.18;;;6.15;;
71715;SDS011;59568;52.128;5.434;2023-08-30T07:54:09;10.82;;;5.60;;
71715;SDS011;59568;52.128;5.434;2023-08-30T07:56:36;12.40;;;6.33;;
71715;SDS011;59568;52.128;5.434;2023-08-30T07:59:03;11.07;;;6.60;;
71715;SDS011;59568;52.128;5.434;2023-08-30T08:01:30;11.48;;;5.85;;
71715;SDS011;59568;52.128;5.434;2023-08-30T08:03:57;11.95;;;6.38;;
71715;SDS011;59568;52.128;5.434;2023-08-30T08:06:33;9.40;;;5.72;;
71715;SDS011;59568;52.128;5.434;2023-08-30T08:09:03;10.13;;;5.90;;
71715;SDS011;59568;52.128;5.434;2023-08-30T08:11:32;9.32;;;5.13;;
71715;SDS011;59568;52.128;5.434;2023-08-30T08:13:59;10.52;;;5.47;;
71715;SDS011;59568;52.128;5.434;2023-08-30T08:16:27;11.60;;;5.95;;
71715;SDS011;59568;52.128;5.434;2023-08-30T08:18:55;13.88;;;6.15;;
71715;SDS011;59568;52.128;5.434;2023-08-30T08:21:27;12.37;;;5.43;;
71715;SDS011;59568;52.128;5.434;2023-08-30T08:23:54;10.05;;;5.82;;
71715;SDS011;59568;52.128;5.434;2023-08-30T08:26:20;10.88;;;5.78;;
71715;SDS011;59568;52.128;5.434;2023-08-30T08:28:47;7.45;;;4.78;;
71715;SDS011;59568;52.128;5.434;2023-08-30T08:31:17;9.23;;;4.88;;
71715;SDS011;59568;52.128;5.434;2023-08-30T08:33:44;8.90;;;5.50;;
71715;SDS011;59568;52.128;5.434;2023-08-30T08:36:11;7.93;;;4.80;;
71715;SDS011;59568;52.128;5.434;2023-08-30T08:38:38;8.60;;;4.45;;
71715;SDS011;59568;52.128;5.434;2023-08-30T08:41:05;6.72;;;4.40;;
71715;SDS011;59568;52.128;5.434;2023-08-30T08:43:36;9.82;;;4.78;;
71715;SDS011;59568;52.128;5.434;2023-08-30T08:46:03;8.17;;;4.30;;
71715;SDS011;59568;52.128;5.434;2023-08-30T08:48:33;7.20;;;4.53;;
71715;SDS011;59568;52.128;5.434;2023-08-30T08:51:06;10.23;;;4.22;;
71715;SDS011;59568;52.128;5.434;2023-08-30T08:53:33;8.77;;;4.20;;
71715;SDS011;59568;52.128;5.434;2023-08-30T08:56:00;6.93;;;3.95;;
71715;SDS011;59568;52.128;5.434;2023-08-30T08:58:28;6.90;;;3.93;;
71715;SDS011;59568;52.128;5.434;2023-08-30T09:00:55;7.60;;;4.05;;
71715;SDS011;59568;52.128;5.434;2023-08-30T09:03:23;6.03;;;3.65;;
71715;SDS011;59568;52.128;5.434;2023-08-30T09:05:51;6.95;;;3.92;;
71715;SDS011;59568;52.128;5.434;2023-08-30T09:08:19;8.98;;;4.60;;
71715;SDS011;59568;52.128;5.434;2023-08-30T09:10:47;7.80;;;4.43;;
71715;SDS011;59568;52.128;5.434;2023-08-30T09:13:17;5.95;;;3.90;;
71715;SDS011;59568;52.128;5.434;2023-08-30T09:15:44;7.68;;;4.47;;
71715;SDS011;59568;52.128;5.434;2023-08-30T09:18:15;7.93;;;3.78;;
71715;SDS011;59568;52.128;5.434;2023-08-30T09:20:45;7.65;;;4.60;;
71715;SDS011;59568;52.128;5.434;2023-08-30T09:23:18;10.57;;;4.63;;
71715;SDS011;59568;52.128;5.434;2023-08-30T09:25:47;6.97;;;4.28;;
71715;SDS011;59568;52.128;5.434;2023-08-30T09:28:20;9.18;;;4.65;;
71715;SDS011;59568;52.128;5.434;2023-08-30T09:30:51;7.65;;;4.20;;
71715;SDS011;59568;52.128;5.434;2023-08-30T09:33:29;6.28;;;4.38;;
71715;SDS011;59568;52.128;5.434;2023-08-30T09:36:00;7.20;;;4.47;;
71715;SDS011;59568;52.128;5.434;2023-08-30T09:38:27;9.18;;;4.80;;
71715;SDS011;59568;52.128;5.434;2023-08-30T09:41:03;6.93;;;4.25;;
71715;SDS011;59568;52.128;5.434;2023-08-30T09:43:34;8.15;;;4.38;;
71715;SDS011;59568;52.128;5.434;2023-08-30T09:46:04;7.47;;;4.68;;
71715;SDS011;59568;52.128;5.434;2023-08-30T09:48:32;7.10;;;4.00;;
71715;SDS011;59568;52.128;5.434;2023-08-30T09:50:59;6.82;;;4.30;;
71715;SDS011;59568;52.128;5.434;2023-08-30T09:53:29;7.32;;;4.90;;
71715;SDS011;59568;52.128;5.434;2023-08-30T09:56:18;8.70;;;5.15;;
71715;SDS011;59568;52.128;5.434;2023-08-30T09:58:48;6.47;;;4.43;;
71715;SDS011;59568;52.128;5.434;2023-08-30T10:01:16;7.07;;;4.73;;
71715;SDS011;59568;52.128;5.434;2023-08-30T10:03:43;8.43;;;5.38;;
71715;SDS011;59568;52.128;5.434;2023-08-30T10:06:11;6.95;;;4.80;;
71715;SDS011;59568;52.128;5.434;2023-08-30T10:08:38;8.05;;;4.88;;
71715;SDS011;59568;52.128;5.434;2023-08-30T10:11:07;7.50;;;4.55;;
71715;SDS011;59568;52.128;5.434;2023-08-30T10:13:36;8.13;;;5.30;;
71715;SDS011;59568;52.128;5.434;2023-08-30T10:16:08;5.97;;;4.95;;
71715;SDS011;59568;52.128;5.434;2023-08-30T10:18:42;8.82;;;5.75;;
71715;SDS011;59568;52.128;5.434;2023-08-30T10:21:29;7.13;;;4.63;;
71715;SDS011;59568;52.128;5.434;2023-08-30T10:23:56;8.35;;;5.40;;
71715;SDS011;59568;52.128;5.434;2023-08-30T10:26:26;9.10;;;6.73;;
71715;SDS011;59568;52.128;5.434;2023-08-30T10:28:55;11.15;;;6.30;;
71715;SDS011;59568;52.128;5.434;2023-08-30T10:31:25;10.93;;;6.72;;
71715;SDS011;59568;52.128;5.434;2023-08-30T10:33:56;9.60;;;6.63;;
71715;SDS011;59568;52.128;5.434;2023-08-30T10:36:24;10.50;;;7.13;;
71715;SDS011;59568;52.128;5.434;2023-08-30T10:38:55;7.50;;;5.97;;
71715;SDS011;59568;52.128;5.434;2023-08-30T10:41:25;8.60;;;6.68;;
71715;SDS011;59568;52.128;5.434;2023-08-30T10:43:54;7.82;;;5.72;;
71715;SDS011;59568;52.128;5.434;2023-08-30T10:46:33;8.15;;;5.40;;
71715;SDS011;59568;52.128;5.434;2023-08-30T10:49:13;9.85;;;6.38;;
71715;SDS011;59568;52.128;5.434;2023-08-30T10:51:41;6.63;;;5.00;;
71715;SDS011;59568;52.128;5.434;2023-08-30T10:54:11;7.32;;;4.28;;
71715;SDS011;59568;52.128;5.434;2023-08-30T10:59:21;6.78;;;3.92;;
71715;SDS011;59568;52.128;5.434;2023-08-30T11:01:49;6.22;;;4.03;;
71715;SDS011;59568;52.128;5.434;2023-08-30T11:04:19;6.00;;;3.20;;
71715;SDS011;59568;52.128;5.434;2023-08-30T11:06:49;5.15;;;3.13;;
71715;SDS011;59568;52.128;5.434;2023-08-30T11:09:20;5.97;;;2.78;;
71715;SDS011;59568;52.128;5.434;2023-08-30T11:11:48;5.25;;;2.90;;
71715;SDS011;59568;52.128;5.434;2023-08-30T11:14:17;5.07;;;2.50;;
71715;SDS011;59568;52.128;5.434;2023-08-30T11:16:45;5.83;;;2.20;;
71715;SDS011;59568;52.128;5.434;2023-08-30T11:19:12;2.72;;;1.65;;
71715;SDS011;59568;52.128;5.434;2023-08-30T11:21:41;7.60;;;2.20;;
71715;SDS011;59568;52.128;5.434;2023-08-30T11:24:10;4.65;;;1.83;;
71715;SDS011;59568;52.128;5.434;2023-08-30T11:26:38;6.00;;;1.83;;
71715;SDS011;59568;52.128;5.434;2023-08-30T11:29:08;6.00;;;1.77;;
71715;SDS011;59568;52.128;5.434;2023-08-30T11:31:35;7.90;;;1.42;;
71715;SDS011;59568;52.128;5.434;2023-08-30T11:34:03;4.00;;;1.80;;
71715;SDS011;59568;52.128;5.434;2023-08-30T11:36:30;7.47;;;1.88;;
71715;SDS011;59568;52.128;5.434;2023-08-30T11:38:58;3.85;;;1.75;;
71715;SDS011;59568;52.128;5.434;2023-08-30T11:41:25;5.50;;;1.67;;
71715;SDS011;59568;52.128;5.434;2023-08-30T11:43:53;7.40;;;1.50;;
71715;SDS011;59568;52.128;5.434;2023-08-30T11:46:21;4.63;;;1.90;;
71715;SDS011;59568;52.128;5.434;2023-08-30T11:48:49;5.20;;;1.98;;
71715;SDS011;59568;52.128;5.434;2023-08-30T11:51:18;4.70;;;1.70;;
71715;SDS011;59568;52.128;5.434;2023-08-30T11:53:46;5.43;;;1.63;;
71715;SDS011;59568;52.128;5.434;2023-08-30T11:56:13;3.30;;;1.50;;
71715;SDS011;59568;52.128;5.434;2023-08-30T11:58:41;5.82;;;1.63;;
71715;SDS011;59568;52.128;5.434;2023-08-30T12:01:07;7.85;;;1.92;;
71715;SDS011;59568;52.128;5.434;2023-08-30T12:03:38;6.50;;;1.65;;
71715;SDS011;59568;52.128;5.434;2023-08-30T12:06:11;4.73;;;1.73;;
71715;SDS011;59568;52.128;5.434;2023-08-30T12:08:39;7.60;;;1.98;;
71715;SDS011;59568;52.128;5.434;2023-08-30T12:11:16;7.10;;;2.25;;
71715;SDS011;59568;52.128;5.434;2023-08-30T12:13:46;4.80;;;1.60;;
71715;SDS011;59568;52.128;5.434;2023-08-30T12:16:17;6.28;;;1.60;;
71715;SDS011;59568;52.128;5.434;2023-08-30T12:18:44;7.77;;;2.67;;
71715;SDS011;59568;52.128;5.434;2023-08-30T12:21:12;4.57;;;1.30;;
71715;SDS011;59568;52.128;5.434;2023-08-30T12:23:42;7.22;;;1.50;;
71715;SDS011;59568;52.128;5.434;2023-08-30T12:26:09;5.43;;;1.30;;
71715;SDS011;59568;52.128;5.434;2023-08-30T12:28:40;4.97;;;0.85;;
71715;SDS011;59568;52.128;5.434;2023-08-30T12:31:11;7.13;;;1.60;;
71715;SDS011;59568;52.128;5.434;2023-08-30T12:33:38;4.90;;;1.25;;
71715;SDS011;59568;52.128;5.434;2023-08-30T12:36:07;3.70;;;1.10;;
71715;SDS011;59568;52.128;5.434;2023-08-30T12:38:34;4.25;;;0.82;;
71715;SDS011;59568;52.128;5.434;2023-08-30T12:41:01;5.78;;;1.15;;
71715;SDS011;59568;52.128;5.434;2023-08-30T12:43:29;3.00;;;0.90;;
71715;SDS011;59568;52.128;5.434;2023-08-30T12:45:55;6.63;;;0.95;;
71715;SDS011;59568;52.128;5.434;2023-08-30T12:48:23;3.95;;;0.80;;
71715;SDS011;59568;52.128;5.434;2023-08-30T12:50:49;6.15;;;1.05;;
71715;SDS011;59568;52.128;5.434;2023-08-30T12:53:16;3.38;;;1.10;;
71715;SDS011;59568;52.128;5.434;2023-08-30T12:55:43;7.00;;;1.10;;
71715;SDS011;59568;52.128;5.434;2023-08-30T12:58:10;6.85;;;1.23;;
71715;SDS011;59568;52.128;5.434;2023-08-30T13:00:38;3.97;;;0.95;;
71715;SDS011;59568;52.128;5.434;2023-08-30T13:03:05;6.72;;;1.00;;
71715;SDS011;59568;52.128;5.434;2023-08-30T13:05:32;2.92;;;0.98;;
71715;SDS011;59568;52.128;5.434;2023-08-30T13:08:00;7.77;;;0.80;;
71715;SDS011;59568;52.128;5.434;2023-08-30T13:10:27;3.78;;;0.90;;
71715;SDS011;59568;52.128;5.434;2023-08-30T13:12:54;4.32;;;1.20;;
71715;SDS011;59568;52.128;5.434;2023-08-30T13:15:21;7.30;;;1.35;;
71715;SDS011;59568;52.128;5.434;2023-08-30T13:17:48;3.95;;;0.88;;
71715;SDS011;59568;52.128;5.434;2023-08-30T13:20:16;4.97;;;0.87;;
71715;SDS011;59568;52.128;5.434;2023-08-30T13:22:43;4.82;;;0.82;;
71715;SDS011;59568;52.128;5.434;2023-08-30T13:25:09;7.50;;;1.10;;
71715;SDS011;59568;52.128;5.434;2023-08-30T13:27:36;6.80;;;1.00;;
71715;SDS011;59568;52.128;5.434;2023-08-30T13:30:04;6.30;;;0.90;;
71715;SDS011;59568;52.128;5.434;2023-08-30T13:32:31;5.87;;;1.20;;
71715;SDS011;59568;52.128;5.434;2023-08-30T13:34:58;5.85;;;0.88;;
71715;SDS011;59568;52.128;5.434;2023-08-30T13:37:25;7.45;;;0.93;;
71715;SDS011;59568;52.128;5.434;2023-08-30T13:39:52;6.28;;;1.20;;
71715;SDS011;59568;52.128;5.434;2023-08-30T13:42:20;6.70;;;1.00;;
71715;SDS011;59568;52.128;5.434;2023-08-30T13:44:51;4.10;;;1.13;;
71715;SDS011;59568;52.128;5.434;2023-08-30T13:47:18;5.53;;;1.10;;
71715;SDS011;59568;52.128;5.434;2023-08-30T13:49:45;2.92;;;1.00;;
71715;SDS011;59568;52.128;5.434;2023-08-30T13:52:12;4.35;;;0.93;;
71715;SDS011;59568;52.128;5.434;2023-08-30T13:54:39;5.22;;;0.70;;
71715;SDS011;59568;52.128;5.434;2023-08-30T13:57:06;6.63;;;1.20;;
71715;SDS011;59568;52.128;5.434;2023-08-30T13:59:33;6.65;;;1.30;;
71715;SDS011;59568;52.128;5.434;2023-08-30T14:02:02;8.70;;;1.40;;
71715;SDS011;59568;52.128;5.434;2023-08-30T14:04:30;5.13;;;1.05;;
71715;SDS011;59568;52.128;5.434;2023-08-30T14:07:01;4.97;;;1.13;;
71715;SDS011;59568;52.128;5.434;2023-08-30T14:09:30;3.27;;;0.90;;
71715;SDS011;59568;52.128;5.434;2023-08-30T14:11:57;3.78;;;1.08;;
71715;SDS011;59568;52.128;5.434;2023-08-30T14:14:24;3.60;;;1.13;;
71715;SDS011;59568;52.128;5.434;2023-08-30T14:16:51;5.55;;;0.80;;
71715;SDS011;59568;52.128;5.434;2023-08-30T14:19:18;2.75;;;0.60;;
71715;SDS011;59568;52.128;5.434;2023-08-30T14:21:45;2.37;;;0.50;;
71715;SDS011;59568;52.128;5.434;2023-08-30T14:24:12;4.70;;;0.98;;
71715;SDS011;59568;52.128;5.434;2023-08-30T14:26:39;4.35;;;1.02;;
71715;SDS011;59568;52.128;5.434;2023-08-30T14:29:06;5.10;;;1.00;;
71715;SDS011;59568;52.128;5.434;2023-08-30T14:31:33;3.17;;;0.70;;
71715;SDS011;59568;52.128;5.434;2023-08-30T14:34:00;8.23;;;1.30;;
71715;SDS011;59568;52.128;5.434;2023-08-30T14:36:27;4.20;;;0.80;;
71715;SDS011;59568;52.128;5.434;2023-08-30T14:38:54;2.00;;;0.82;;
71715;SDS011;59568;52.128;5.434;2023-08-30T14:41:21;5.88;;;0.82;;
71715;SDS011;59568;52.128;5.434;2023-08-30T14:43:48;4.40;;;1.00;;
71715;SDS011;59568;52.128;5.434;2023-08-30T14:46:15;2.70;;;0.70;;
71715;SDS011;59568;52.128;5.434;2023-08-30T14:48:49;2.90;;;1.10;;
71715;SDS011;59568;52.128;5.434;2023-08-30T14:51:16;5.00;;;1.83;;
71715;SDS011;59568;52.128;5.434;2023-08-30T14:53:43;2.42;;;1.05;;
71715;SDS011;59568;52.128;5.434;2023-08-30T14:56:10;4.28;;;1.30;;
71715;SDS011;59568;52.128;5.434;2023-08-30T14:58:38;3.10;;;1.00;;